Flight Track Log - Related Links

Times and Time Zones

All times are in EDT time to prevent confusion due to time zone crossing. See the N53NW flight status page for this flight to view local times or setup timezone preferences in your user account.

Time Position Orientation Groundspeed Altitude Reporting Facility
EDT Latitude Longitude Course Direction KTS MPH feet Rate Location/Type
Sun 07:19:16 PM 30.7581 -81.7153 336° Northwest 287 330 27,000  Level Jacksonville Center
Sun 07:20:16 PM 30.8336 -81.7531 337° Northwest 292 336 28,400 1,400 Climbing Jacksonville Center
Sun 07:21:16 PM 30.9153 -81.7933 337° Northwest 297 342 29,800 1,300 Climbing Jacksonville Center
Sun 07:22:16 PM 30.9928 -81.8311 337° Northwest 297 342 31,000 600 Climbing Jacksonville Center
Sun 07:23:16 PM 31.0789 -81.8739 337° Northwest 311 358 31,000  Level Jacksonville Center
Sun 07:24:00 PM 31.3618 -82.0608 336° Northwest  Level Estimated
Sun 07:24:16 PM 31.1711 -81.9189 337° Northwest 350 403 31,000  Level Jacksonville Center
Sun 07:25:16 PM 31.2653 -81.9642 338° Northwest 356 410 31,400 900 Climbing Jacksonville Center
Sun 07:26:16 PM 31.3533 -82.0094 336° Northwest 350 403 32,800 800 Climbing Jacksonville Center
Sun 07:27:16 PM 31.4392 -82.0550 336° Northwest 340 391 33,000 100 Climbing Jacksonville Center
Sun 07:28:16 PM 31.5356 -82.0981 339° North 352 405 33,000  Level Jacksonville Center
Sun 07:29:16 PM 31.6297 -82.1411 339° North 366 421 33,000  Level Jacksonville Center
Sun 07:30:16 PM 31.7364 -82.1647 349° North 385 443 33,000 806 Level Jacksonville Center
Sun 07:32:22 PM 31.9622 -82.1833 356° North 405 466 35,500 1,129 Climbing Atlanta Center
Sun 07:33:22 PM 32.0708 -82.1858 359° North 393 452 36,500 1,000 Climbing Atlanta Center
Sun 07:34:22 PM 32.1711 -82.2011 353° North 379 436 37,500 1,000 Climbing Atlanta Center
Sun 07:35:22 PM 32.2617 -82.2556 333° Northwest 346 398 38,500 1,000 Climbing Atlanta Center
Sun 07:36:22 PM 32.3417 -82.3031 333° Northwest 331 381 39,500 750 Climbing Atlanta Center
Sun 07:37:22 PM 32.4217 -82.3558 331° Northwest 326 375 40,000 250 Climbing Atlanta Center
Sun 07:38:22 PM 32.5081 -82.4083 333° Northwest 334 384 40,000  Level Atlanta Center
Sun 07:39:22 PM 32.5900 -82.4586 333° Northwest 334 384 40,000  Level Atlanta Center
Sun 07:40:22 PM 32.6658 -82.5067 332° Northwest 339 390 40,000  Level Atlanta Center
Sun 07:41:22 PM 32.7481 -82.5594 332° Northwest 339 390 40,000  Level Atlanta Center
Sun 07:42:22 PM 32.8342 -82.6125 333° Northwest 339 390 40,000  Level Atlanta Center
Sun 07:43:22 PM 32.9161 -82.6681 330° Northwest 339 390 40,000  Level Atlanta Center
Sun 07:44:22 PM 33.0003 -82.7186 333° Northwest 339 390 40,000  Level Atlanta Center
Sun 07:45:22 PM 33.0842 -82.7744 331° Northwest 339 390 40,000  Level Atlanta Center
Sun 07:46:22 PM 33.1683 -82.8253 333° Northwest 339 390 40,000  Level Atlanta Center
Sun 07:47:22 PM 33.2522 -82.8789 332° Northwest 339 390 40,000  Level Atlanta Center
Sun 07:48:22 PM 33.3447 -82.9372 332° Northwest 334 384 40,000  Level Atlanta Center
Sun 07:49:22 PM 33.4181 -82.9836 332° Northwest 328 377 40,000  Level Atlanta Center
Sun 07:50:22 PM 33.5022 -83.0347 333° Northwest 333 383 40,000  Level Atlanta Center
Sun 07:51:22 PM 33.5839 -83.0889 331° Northwest 327 376 40,000  Level Atlanta Center
Sun 07:52:22 PM 33.6658 -83.1403 332° Northwest 332 382 40,000  Level Atlanta Center
Sun 07:53:22 PM 33.7475 -83.1944 331° Northwest 332 382 40,000  Level Atlanta Center
Sun 07:54:22 PM 33.8314 -83.2461 333° Northwest 332 382 40,000  Level Atlanta Center
Sun 07:55:22 PM 33.9153 -83.3003 332° Northwest 332 382 40,000  Level Atlanta Center
Sun 07:56:22 PM 34.0031 -83.3497 335° Northwest 332 382 40,000  Level Atlanta Center
Sun 07:57:22 PM 34.0931 -83.3992 336° Northwest 349 402 40,000  Level Atlanta Center
Sun 07:58:22 PM 34.1936 -83.4511 337° Northwest 349 402 40,000  Level Atlanta Center
Sun 07:59:22 PM 34.2856 -83.4958 338° Northwest 354 407 40,000  Level Atlanta Center
Sun 08:00:22 PM 34.3733 -83.5431 336° Northwest 348 400 40,000  Level Atlanta Center
Sun 08:01:22 PM 34.4633 -83.5903 337° Northwest 348 400 40,000  Level Atlanta Center
Sun 08:02:22 PM 34.5533 -83.6353 338° Northwest 343 395 40,000  Level Atlanta Center
Sun 08:03:22 PM 34.6431 -83.6828 336° Northwest 343 395 40,000  Level Atlanta Center
Sun 08:04:22 PM 34.7308 -83.7278 337° Northwest 343 395 40,000  Level Atlanta Center
Sun 08:05:22 PM 34.8186 -83.7731 337° Northwest 342 394 40,000  Level Atlanta Center
Sun 08:06:22 PM 34.9086 -83.8208 336° Northwest 342 394 40,000  Level Atlanta Center
Sun 08:07:22 PM 34.9858 -83.8664 334° Northwest 337 388 40,000  Level Atlanta Center
Sun 08:08:22 PM 35.0778 -83.9144 337° Northwest 343 395 40,000  Level Atlanta Center
Sun 08:09:22 PM 35.1694 -83.9625 337° Northwest 348 400 40,000  Level Atlanta Center
Sun 08:10:22 PM 35.2614 -84.0108 337° Northwest 353 406 40,000  Level Atlanta Center
Sun 08:11:22 PM 35.3511 -84.0592 336° Northwest 358 412 40,000  Level Atlanta Center
Sun 08:12:22 PM 35.4450 -84.1075 337° Northwest 358 412 40,000  Level Atlanta Center
Sun 08:13:22 PM 35.5347 -84.1561 336° Northwest 358 412 40,000  Level Atlanta Center
Sun 08:14:22 PM 35.6283 -84.2047 337° Northwest 358 412 40,000  Level Atlanta Center
Sun 08:15:22 PM 35.7203 -84.2536 337° Northwest 358 412 40,000  Level Atlanta Center
Sun 08:16:22 PM 35.8139 -84.3050 336° Northwest 358 412 40,000  Level Atlanta Center
Sun 08:18:42 PM 36.0372 -84.4247 337° Northwest 365 420 40,000  Level Indianapolis Center
Sun 08:19:43 PM 36.1294 -84.4744 336° Northwest 365 420 40,000  Level Indianapolis Center
Sun 08:20:45 PM 36.2208 -84.5242 336° Northwest 362 417 40,000  Level Indianapolis Center
Sun 08:21:47 PM 36.3119 -84.5744 336° Northwest 359 413 40,000  Level Indianapolis Center
Sun 08:22:48 PM 36.4036 -84.6236 337° Northwest 360 414 40,000  Level Indianapolis Center
Sun 08:23:50 PM 36.5150 -84.6850 336° Northwest 364 419 40,000  Level Indianapolis Center
Sun 08:24:51 PM 36.6061 -84.7353 336° Northwest 361 415 40,000  Level Indianapolis Center
Sun 08:25:53 PM 36.6994 -84.7864 336° Northwest 366 421 40,000  Level Indianapolis Center
Sun 08:26:55 PM 36.7925 -84.8375 336° Northwest 366 421 40,000  Level Indianapolis Center
Sun 08:27:56 PM 36.8861 -84.8914 335° Northwest 368 423 40,000  Level Indianapolis Center
Sun 08:28:58 PM 36.9800 -84.9417 337° Northwest 367 422 40,000  Level Indianapolis Center
Sun 08:30:00 PM 37.0797 -84.9967 336° Northwest 371 427 40,000  Level Indianapolis Center
Sun 08:31:01 PM 37.1736 -85.0503 336° Northwest 371 427 40,000  Level Indianapolis Center
Sun 08:32:03 PM 37.2697 -85.1039 336° Northwest 375 432 40,000  Level Indianapolis Center
Sun 08:33:04 PM 37.3794 -85.1650 336° Northwest 368 423 40,000  Level Indianapolis Center
Sun 08:34:06 PM 37.4722 -85.2181 336° Northwest 365 420 40,000  Level Indianapolis Center
Sun 08:35:07 PM 37.5653 -85.2697 336° Northwest 363 418 40,000  Level Indianapolis Center
Sun 08:36:09 PM 37.6567 -85.3231 335° Northwest 361 415 40,000  Level Indianapolis Center
Sun 08:37:11 PM 37.7506 -85.3753 336° Northwest 365 420 40,000  Level Indianapolis Center
Sun 08:38:12 PM 37.8503 -85.4311 336° Northwest 370 426 40,000  Level Indianapolis Center
Sun 08:39:14 PM 37.9439 -85.4839 336° Northwest 369 425 40,000  Level Indianapolis Center
Sun 08:40:15 PM 38.0367 -85.5372 336° Northwest 367 422 40,000  Level Indianapolis Center
Sun 08:41:17 PM 38.1278 -85.5936 334° Northwest 365 420 40,000  Level Indianapolis Center
Sun 08:42:18 PM 38.2119 -85.6575 329° Northwest 354 407 40,000  Level Indianapolis Center
Sun 08:43:20 PM 38.2978 -85.7233 329° Northwest 358 412 40,000  Level Indianapolis Center
Sun 08:44:21 PM 38.3847 -85.7875 330° Northwest 361 415 40,000  Level Indianapolis Center
Sun 08:45:23 PM 38.4875 -85.8672 329° Northwest 360 414 40,000  Level Indianapolis Center
Sun 08:46:24 PM 38.5725 -85.9325 329° Northwest 357 411 40,000  Level Indianapolis Center
Sun 08:47:26 PM 38.6578 -85.9978 329° Northwest 357 411 40,000  Level Indianapolis Center
Sun 08:48:27 PM 38.7442 -86.0628 330° Northwest 360 414 40,000  Level Indianapolis Center
Sun 08:49:29 PM 38.8292 -86.1281 329° Northwest 357 411 40,000  Level Indianapolis Center
Sun 08:50:30 PM 38.9225 -86.2000 329° Northwest 355 409 40,000  Level Indianapolis Center
Sun 08:51:32 PM 39.0067 -86.2642 329° Northwest 353 406 40,000  Level Indianapolis Center
Sun 08:52:33 PM 39.0906 -86.3308 328° Northwest 355 409 40,000  Level Indianapolis Center
Sun 08:53:34 PM 39.1750 -86.3953 329° Northwest 353 406 40,000  Level Indianapolis Center
Sun 08:54:36 PM 39.2586 -86.4611 329° Northwest 353 406 40,000  Level Indianapolis Center
Sun 08:55:37 PM 39.3436 -86.5272 329° Northwest 354 407 40,000  Level Indianapolis Center
Sun 08:56:38 PM 39.4275 -86.5928 329° Northwest 352 405 40,000  Level Indianapolis Center
Sun 08:57:40 PM 39.5128 -86.6597 329° Northwest 355 409 40,000  Level Indianapolis Center
Sun 08:58:41 PM 39.5969 -86.7256 329° Northwest 353 406 40,000  Level Indianapolis Center
Sun 08:59:42 PM 39.6814 -86.7928 329° Northwest 354 407 40,000  Level Indianapolis Center
Sun 09:00:44 PM 39.7825 -86.8736 328° Northwest 355 409 40,000  Level Indianapolis Center
Sun 09:01:45 PM 39.8669 -86.9392 329° Northwest 354 407 40,000  Level Indianapolis Center
Sun 09:02:47 PM 39.9500 -87.0067 328° Northwest 353 406 40,000  Level Indianapolis Center
Sun 09:03:48 PM 40.0339 -87.0731 329° Northwest 353 406 40,000  Level Indianapolis Center
Sun 09:04:49 PM 40.1183 -87.1400 329° Northwest 355 409 40,000  Level Indianapolis Center
Sun 09:05:27 PM 40.1672 -87.1817 327° Northwest 354 407 40,000  Level Chicago Center
Sun 09:06:29 PM 40.2511 -87.2492 328° Northwest 356 410 40,000  Level Chicago Center
Sun 09:07:31 PM 40.3347 -87.3186 328° Northwest 356 410 40,000  Level Chicago Center
Sun 09:08:33 PM 40.4353 -87.3978 329° Northwest 354 407 40,000  Level Chicago Center
Sun 09:09:35 PM 40.5242 -87.4697 328° Northwest 356 410 40,000 -339 Level Chicago Center
Sun 09:10:37 PM 40.6083 -87.5375 329° Northwest 357 411 39,300 -823 Descending Chicago Center
Sun 09:11:39 PM 40.6900 -87.6050 328° Northwest 350 403 38,300 -968 Descending Chicago Center
Sun 09:12:41 PM 40.7742 -87.6742 328° Northwest 356 410 37,300 -968 Descending Chicago Center
Sun 09:13:43 PM 40.8589 -87.7442 328° Northwest 361 415 36,300 -968 Descending Chicago Center
Sun 09:14:45 PM 40.9433 -87.8142 328° Northwest 358 412 35,300 -629 Descending Chicago Center
Sun 09:15:47 PM 41.0406 -87.8939 328° Northwest 345 397 35,000 -145 Descending Chicago Center
Sun 09:16:49 PM 41.1228 -87.9622 328° Northwest 349 402 35,000  Level Chicago Center
Sun 09:17:51 PM 41.2056 -88.0314 328° Northwest 350 403 35,000 -293 Level Chicago Center
Sun 09:18:52 PM 41.2878 -88.1000 328° Northwest 348 400 34,400 -878 Descending Chicago Center
Sun 09:19:54 PM 41.3758 -88.1583 334° Northwest 345 397 33,200 -1,161 Descending Chicago Center
Sun 09:20:56 PM 41.4653 -88.2161 334° Northwest 349 402 32,000 -581 Descending Chicago Center
Sun 09:21:58 PM 41.5547 -88.2753 334° Northwest 355 409 32,000  Level Chicago Center
Sun 09:23:00 PM 41.6433 -88.3328 334° Northwest 354 407 32,000 -774 Level Chicago Center
Sun 09:24:02 PM 41.7469 -88.4003 334° Northwest 348 400 30,400 -1,756 Descending Chicago Center
Sun 09:25:03 PM 41.8311 -88.4547 334° Northwest 341 392 28,400 -1,951 Descending Chicago Center
Sun 09:26:05 PM 41.9136 -88.5094 334° Northwest 333 383 26,400 -1,887 Descending Chicago Center
Sun 09:27:07 PM 41.9933 -88.5625 334° Northwest 323 372 24,500 -1,161 Descending Chicago Center
Sun 09:28:09 PM 42.0686 -88.6128 334° Northwest 307 353 24,000 -242 Descending Chicago Center
Sun 09:29:11 PM 42.1439 -88.6631 334° Northwest 304 350 24,000  Level Chicago Center
Sun 09:30:12 PM 42.2364 -88.7222 335° Northwest 307 353 24,000 -634 Level Chicago Center
Sun 09:31:14 PM 42.3122 -88.7744 333° Northwest 307 353 22,700 -1,306 Descending Chicago Center
Sun 09:32:16 PM 42.3881 -88.8275 333° Northwest 297 342 21,300 -1,645 Descending Chicago Center
Sun 09:33:18 PM 42.4617 -88.8758 334° Northwest 293 337 19,300 -1,854 Descending Chicago Center
Sun 09:34:19 PM 42.5361 -88.9253 334° Northwest 294 338 17,500 -1,902 Descending Chicago Center
Sun 09:35:21 PM 42.6056 -88.9722 334° Northwest 282 325 15,400 -1,694 Descending Chicago Center
Sun 09:36:23 PM 42.6736 -89.0183 334° Northwest 275 316 14,000 -1,805 Descending Chicago Center
Sun 09:37:24 PM 42.7336 -89.0589 334° Northwest 245 282 11,700 -1,463 Descending Chicago Center
Sun 09:38:26 PM 42.7836 -89.0964 331° Northwest 211 243 11,000 -1,561 Descending Chicago Center
Sun 09:39:27 PM 42.8158 -89.1736 300° West 204 235 8,500 -2,293 Descending Chicago Center
Sun 09:40:29 PM 42.8489 -89.2453 302° West 219 252 6,300 -2,146 Descending Chicago Center
Sun 09:41:30 PM 42.8936 -89.3025 317° Northwest 226 260 4,100 -1,561 Descending Chicago Center
Sun 09:42:32 PM 42.9494 -89.3311 339° North 221 254 3,100 -537 Descending Chicago Center
Sun 09:43:33 PM 42.9925 -89.3483 344° North 193 222 3,000 -98 Descending Chicago Center
Sun 09:44:35 PM 43.0314 -89.3481 360° North 162 186 2,900 -390 Descending Chicago Center
Sun 09:45:36 PM 43.0650 -89.3453 North 140 161 2,200 -634 Descending Chicago Center
Sun 09:46:38 PM 43.0953 -89.3444 North 122 140 1,600 -537 Descending Chicago Center
Sun 09:47:39 PM 43.1275 -89.3433 North 113 130 1,100 -492 Descending Chicago Center
Sun 09:49:00 PM 43.1333 -89.3333 324° Northwest  Level FlightAware

Login

Don't have an account? Register now (free) for customized features, flight alerts, and more!